• Join FlightAware (Why Join?)
  • Login
  • US Flag 
02:01PM EDT


 

Airport Tracker/Info


-or-


 

Live Flight TrackerFlight Track Log ✈ ENY3554 ✈ 18-Aug-2014 ✈ KMIA - KATL

Flight Track Log - Related Links

Times and Time Zones

All times are in EDT time to prevent confusion due to time zone crossing. See the ENY3554 flight status page for this flight to view local times or setup timezone preferences in your user account.

Time Position Orientation Groundspeed Altitude Reporting Facility
EDT Latitude Longitude Course Direction KTS MPH feet Rate Location/Type
04:18PM 25.8061 -80.2611 338° Northwest 161 185 800  Level Miami Center
04:19PM 25.8117 -80.2453 69° East 169 194 1,200 1,560 Climbing Miami Center
04:20PM 25.8264 -80.2047 68° East 217 250 2,400 1,860 Climbing Miami Center
04:20PM 25.8344 -80.1844 66° East 208 239 3,100 1,740 Climbing Miami Center
04:21PM 26.0879 -80.3809 341° North  Level FlightAware Approximate
04:21PM 25.8669 -80.1592 35° Northeast 244 281 4,200  Level Miami Center
04:21PM 25.8878 -80.1689 337° Northwest 247 284 4,500 1,500 Climbing Miami Center
04:22PM 26.1893 -80.4167 North  Level FlightAware Approximate
04:22PM 25.9503 -80.2153 326° Northwest 269 310 6,400  Level Miami Center
04:23PM 26.2889 -80.4528 336° Northwest  Level FlightAware Approximate
04:23PM 26.0272 -80.2747 325° Northwest 286 329 8,500  Level Miami Center
04:24PM 26.3862 -80.5013 338° Northwest  Level FlightAware Approximate
04:24PM 26.0964 -80.3267 326° Northwest 298 343 10,100  Level Miami Center
04:25PM 26.1686 -80.3847 324° Northwest 318 366 11,600 1,680 Climbing Miami Center
04:26PM 26.2417 -80.4356 328° Northwest 313 360 13,600 1,560 Climbing Miami Center
04:27PM 26.3383 -80.4808 337° Northwest 325 374 14,900 1,140 Climbing Miami Center
04:28PM 26.4275 -80.5219 338° Northwest 341 392 16,000 960 Climbing Miami Center
04:29PM 26.5181 -80.5669 336° Northwest 354 407 17,000 960 Climbing Miami Center
04:30PM 26.6186 -80.6142 337° Northwest 361 415 18,000 1,020 Climbing Miami Center
04:31PM 26.7133 -80.6578 338° Northwest 367 422 19,100 900 Climbing Miami Center
04:32PM 26.7950 -80.6969 337° Northwest 371 427 19,900 1,020 Climbing Miami Center
04:33PM 26.9164 -80.7400 342° North 378 435 21,200 1,080 Climbing Miami Center
04:34PM 27.0181 -80.7772 342° North 380 437 22,200 960 Climbing Miami Center
04:35PM 27.1192 -80.8139 342° North 381 438 23,300 960 Climbing Miami Center
04:36PM 27.2206 -80.8511 342° North 382 440 24,300 960 Climbing Miami Center
04:37PM 27.3150 -80.8850 342° North 380 437 25,300 960 Climbing Miami Center
04:38PM 27.4361 -80.9292 342° North 384 442 26,300 840 Climbing Miami Center
04:39PM 27.5369 -80.9656 342° North 382 440 27,100 780 Climbing Miami Center
04:41PM 27.6392 -81.0044 341° North 388 447 28,000 780 Climbing Miami Center
04:42PM 27.7428 -81.0419 342° North 390 449 28,800 780 Climbing Miami Center
04:43PM 27.8464 -81.0803 342° North 391 450 29,700 900 Climbing Miami Center
04:44PM 27.9700 -81.1258 342° North 396 456 30,700 900 Climbing Miami Center
04:45PM 28.0811 -81.1658 342° North 398 458 31,600 780 Climbing Miami Center
04:46PM 28.1856 -81.2050 342° North 407 468 32,400 780 Climbing Miami Center
04:47PM 28.2969 -81.2444 343° North 405 466 33,300 780 Climbing Miami Center
04:47PM 28.3756 -81.2742 342° North 405 466 33,800 780 Climbing Jacksonville Center
04:48PM 28.4844 -81.3056 346° North 405 466 34,700 600 Climbing Jacksonville Center
04:49PM 28.5975 -81.3367 346° North 405 466 35,000 60 Climbing Jacksonville Center
04:50PM 28.7144 -81.3514 354° North 411 473 34,900  Descending Jacksonville Center
04:51PM 28.8397 -81.3544 359° North 429 494 35,000  Climbing Jacksonville Center
04:52PM 28.9631 -81.3525 North 437 503 35,000  Level Jacksonville Center
04:53PM 29.0839 -81.3506 North 431 496 35,000 300 Level Jacksonville Center
04:54PM 29.2072 -81.3511 360° North 437 503 35,600 660 Climbing Jacksonville Center
04:55PM 29.3303 -81.3539 359° North 437 503 36,400 660 Climbing Jacksonville Center
04:56PM 29.4514 -81.3519 North 432 497 37,000 300 Climbing Jacksonville Center
04:57PM 29.5558 -81.3597 356° North 432 497 37,000  Level Jacksonville Center
04:58PM 29.6714 -81.4131 338° Northwest 421 484 37,000  Level Jacksonville Center
04:59PM 29.7825 -81.4664 337° Northwest 426 490 37,000  Level Jacksonville Center
05:00PM 29.8939 -81.5247 336° Northwest 431 496 37,000  Level Jacksonville Center
05:01PM 29.9928 -81.6000 327° Northwest 431 496 37,000  Level Jacksonville Center
05:02PM 30.0853 -81.6828 322° Northwest 431 496 37,000  Level Jacksonville Center
05:03PM 30.1928 -81.7678 326° Northwest 426 490 37,000  Level Jacksonville Center
05:04PM 30.3058 -81.8194 338° Northwest 434 499 37,000 -60 Level Jacksonville Center
05:05PM 30.4211 -81.8711 339° North 434 499 36,900  Descending Jacksonville Center
05:06PM 30.5322 -81.9183 340° North 434 499 37,000  Climbing Jacksonville Center
05:07PM 30.6494 -81.9725 338° Northwest 439 505 36,900  Descending Jacksonville Center
05:08PM 30.7606 -82.0222 339° North 434 499 37,000  Climbing Jacksonville Center
05:09PM 30.8736 -82.0744 338° Northwest 434 499 36,900  Descending Jacksonville Center
05:10PM 30.9867 -82.1244 339° North 434 499 37,000 -840 Climbing Jacksonville Center
05:11PM 31.1017 -82.1792 338° Northwest 434 499 35,300 -1,080 Descending Jacksonville Center
05:12PM 31.2211 -82.2269 341° North 439 505 34,900 -180 Descending Jacksonville Center
05:13PM 31.3361 -82.2772 340° North 439 505 35,000  Climbing Jacksonville Center
05:14PM 31.4575 -82.3056 349° North 430 495 35,000  Level Jacksonville Center
05:15PM 31.5786 -82.3317 350° North 435 501 35,000  Level Jacksonville Center
05:17PM 31.8050 -82.4333 339° North 433 498 35,000  Level Atlanta Center
05:18PM 31.9142 -82.4900 336° Northwest 433 498 35,000  Level Atlanta Center
05:19PM 32.0256 -82.5469 337° Northwest 433 498 35,000  Level Atlanta Center
05:20PM 32.1389 -82.6064 336° Northwest 433 498 35,000 -540 Level Atlanta Center
05:21PM 32.2339 -82.6981 321° Northwest 433 498 34,000 -1,200 Descending Atlanta Center
05:22PM 32.3247 -82.7950 318° Northwest 439 505 32,600 -1,320 Descending Atlanta Center
05:23PM 32.4114 -82.8947 316° Northwest 439 505 31,400 -1,260 Descending Atlanta Center
05:24PM 32.4997 -82.9922 317° Northwest 433 498 30,100 -1,380 Descending Atlanta Center
05:25PM 32.5861 -83.0922 316° Northwest 433 498 28,700 -1,380 Descending Atlanta Center
05:26PM 32.6725 -83.1900 316° Northwest 433 498 27,400 -1,920 Descending Atlanta Center
05:27PM 32.7608 -83.2881 317° Northwest 433 498 24,900 -2,580 Descending Atlanta Center
05:28PM 32.8447 -83.3861 316° Northwest 433 498 22,300 -2,640 Descending Atlanta Center
05:29PM 32.9308 -83.4819 317° Northwest 433 498 19,700 -2,640 Descending Atlanta Center
05:30PM 33.0086 -83.5756 315° West 418 481 17,100 -2,640 Descending Atlanta Center
05:31PM 33.0861 -83.6644 316° Northwest 402 463 14,500 -2,880 Descending Atlanta Center
05:32PM 33.1333 -83.7167 317° Northwest 358 412 12,700 -1,620 Descending Atlanta TRACON
05:33PM 33.2000 -83.7833 320° Northwest 316 364 12,000 -600 Descending Atlanta TRACON
05:34PM 33.2500 -83.8667 306° West 272 313 11,500 -1,020 Descending Atlanta TRACON
05:35PM 33.3000 -83.9500 306° West 270 311 9,900 -1,680 Descending Atlanta TRACON
05:36PM 33.3333 -84.0167 301° West 273 314 8,200 -1,740 Descending Atlanta TRACON
05:37PM 33.3667 -84.0833 301° West 259 298 6,600 -1,560 Descending Atlanta TRACON
05:38PM 33.4167 -84.1500 312° West 235 270 5,000 -780 Descending Atlanta TRACON
05:39PM 33.4833 -84.1500 360° North 233 268 5,000 -480 Level Atlanta TRACON
05:40PM 33.5333 -84.1333 16° North 222 255 4,200 -960 Descending Atlanta TRACON
05:41PM 33.6000 -84.1667 337° Northwest 227 261 3,200 -600 Descending Atlanta TRACON
05:42PM 33.6167 -84.2167 292° West 191 220 3,000 -120 Descending Atlanta TRACON
05:43PM 33.6333 -84.2833 287° West 176 203 3,000 -360 Level Atlanta TRACON
05:44PM 33.6333 -84.3333 270° West 177 204 2,400 -840 Descending Atlanta TRACON
05:45PM 33.6333 -84.3833 270° West 149 171 1,500 -900 Descending Atlanta TRACON